createdAt,value
2022-09-24T00:05:15.158Z,20.27
2022-09-24T00:12:02.016Z,19.92
2022-09-24T00:18:50.073Z,20.11
2022-09-24T00:25:48.453Z,20.18
2022-09-24T00:32:33.813Z,20.15
2022-09-24T00:39:21.714Z,20.07
2022-09-24T00:46:17.253Z,20.03
2022-09-24T00:53:07.779Z,20.04
2022-09-24T00:59:56.419Z,20.02
2022-09-24T01:06:41.928Z,19.99
2022-09-24T01:13:52.599Z,19.84
2022-09-24T01:21:38.724Z,19.84
2022-09-24T01:28:39.947Z,19.67
2022-09-24T01:35:32.538Z,19.54
2022-09-24T01:42:22.093Z,19.16
2022-09-24T01:49:07.720Z,19.42
2022-09-24T01:56:05.211Z,19.37
2022-09-24T02:02:58.265Z,19.32
2022-09-24T02:09:46.776Z,19.20
2022-09-24T02:16:43.442Z,19.11
2022-09-24T02:23:31.882Z,19.02
2022-09-24T02:30:17.994Z,18.93
2022-09-24T02:37:10.814Z,18.77
2022-09-24T02:43:56.675Z,18.66
2022-09-24T03:04:33.617Z,18.57
2022-09-24T03:11:19.123Z,18.57
2022-09-24T03:18:04.546Z,18.55
2022-09-24T03:24:53.969Z,18.28
2022-09-24T03:31:39.440Z,18.39
2022-09-24T03:38:24.816Z,17.67
2022-09-24T03:45:14.307Z,18.13
2022-09-24T03:51:59.654Z,18.04
2022-09-24T03:58:48.064Z,17.91
2022-09-24T04:05:36.788Z,17.79
2022-09-24T04:12:23.064Z,17.77
2022-09-24T04:19:08.432Z,17.79
2022-09-24T04:25:56.998Z,17.77
2022-09-24T04:32:42.442Z,17.77
2022-09-24T04:39:27.945Z,17.82
2022-09-24T04:46:18.254Z,17.77
2022-09-24T04:53:05.092Z,17.32
2022-09-24T04:59:50.260Z,17.88
2022-09-24T05:06:38.225Z,17.55
2022-09-24T05:13:23.737Z,17.48
2022-09-24T05:20:11.305Z,17.37
2022-09-24T05:27:14.433Z,17.43
2022-09-24T05:33:59.972Z,17.47
2022-09-24T05:40:52.298Z,17.03
2022-09-24T05:47:40.306Z,17.42
2022-09-24T05:54:25.978Z,17.52
2022-09-24T06:01:11.449Z,17.54
2022-09-24T06:07:59.419Z,17.48
2022-09-24T06:14:45.229Z,17.53
2022-09-24T06:21:30.650Z,17.62
2022-09-24T06:28:18.605Z,17.72
2022-09-24T06:35:04.032Z,17.78
2022-09-24T06:41:50.789Z,17.72
2022-09-24T06:48:39.731Z,17.97
2022-09-24T06:55:25.474Z,17.84
2022-09-24T07:02:12.762Z,17.89
2022-09-24T07:09:01.905Z,17.72
2022-09-24T07:15:48.575Z,17.97
2022-09-24T07:22:33.907Z,18.27
2022-09-24T07:29:22.129Z,17.77
2022-09-24T07:36:08.992Z,18.20
2022-09-24T07:42:55.241Z,18.29
2022-09-24T07:49:43.260Z,18.26
2022-09-24T07:56:28.993Z,18.36
2022-09-24T08:03:15.031Z,18.44
2022-09-24T08:10:03.503Z,18.61
2022-09-24T08:16:48.830Z,18.71
2022-09-24T08:23:36.396Z,18.91
2022-09-24T08:30:24.776Z,19.02
2022-09-24T08:37:10.356Z,19.16
2022-09-24T08:44:05.386Z,19.26
2022-09-24T08:51:00.872Z,19.33
2022-09-24T08:58:01.047Z,19.41
2022-09-24T09:05:03.248Z,19.56
2022-09-24T09:11:55.965Z,19.63
2022-09-24T09:18:46.068Z,19.71
2022-09-24T09:25:38.474Z,19.81
2022-09-24T09:32:43.051Z,19.92
2022-09-24T09:39:42.835Z,19.61
2022-09-24T09:46:36.183Z,20.42
2022-09-24T09:53:26.746Z,20.05
2022-09-24T10:00:29.429Z,20.97
2022-09-24T10:07:17.941Z,20.83
2022-09-24T10:14:15.082Z,20.46
2022-09-24T10:21:02.654Z,21.13
2022-09-24T10:27:48.230Z,21.26
2022-09-24T10:34:36.809Z,21.35
2022-09-24T10:41:30.941Z,21.47
2022-09-24T10:48:24.153Z,21.64
2022-09-24T10:55:32.312Z,21.82
2022-09-24T11:03:00.333Z,22.00
2022-09-24T11:09:54.677Z,22.16
2022-09-24T11:17:16.662Z,22.28
2022-09-24T11:24:30.195Z,22.38
2022-09-24T11:31:28.574Z,22.44
2022-09-24T11:38:22.771Z,22.64
2022-09-24T11:45:44.343Z,22.82
2022-09-24T11:52:37.926Z,22.26
2022-09-24T11:59:39.237Z,23.01
2022-09-24T12:06:33.689Z,23.13
2022-09-24T12:13:23.026Z,23.01
2022-09-24T12:20:21.233Z,23.00
2022-09-24T12:27:15.120Z,22.43
2022-09-24T12:34:08.411Z,22.69
2022-09-24T12:41:24.414Z,22.57
2022-09-24T12:48:16.131Z,22.54
2022-09-24T12:55:04.949Z,22.51
2022-09-24T13:01:53.063Z,22.49
2022-09-24T13:08:43.931Z,22.08
2022-09-24T13:15:42.727Z,22.81
2022-09-24T13:22:34.817Z,22.98
2022-09-24T13:29:29.440Z,23.14
2022-09-24T13:36:20.137Z,23.14
2022-09-24T13:43:17.518Z,23.00
2022-09-24T13:50:15.236Z,22.82
2022-09-24T13:57:05.650Z,23.07
2022-09-24T14:04:02.881Z,22.99
2022-09-24T14:10:51.027Z,22.98
2022-09-24T14:17:36.439Z,22.66
2022-09-24T14:24:28.329Z,22.83
2022-09-24T14:31:13.827Z,22.75
2022-09-24T14:38:08.783Z,22.80
2022-09-24T14:44:57.974Z,22.89
2022-09-24T14:51:43.351Z,22.99
2022-09-24T14:58:39.036Z,23.10
2022-09-24T15:05:31.292Z,23.04
2022-09-24T15:12:26.632Z,22.92
2022-09-24T15:19:22.289Z,22.85
2022-09-24T15:26:10.406Z,22.81
2022-09-24T15:32:56.017Z,22.78
2022-09-24T15:39:48.469Z,22.70
2022-09-24T15:46:38.315Z,22.64
2022-09-24T15:53:27.536Z,22.46
2022-09-24T16:00:18.377Z,22.64
2022-09-24T16:07:06.407Z,22.70
2022-09-24T16:13:53.554Z,22.66
2022-09-24T16:20:43.525Z,22.69
2022-09-24T16:27:31.629Z,22.78
2022-09-24T16:34:17.141Z,23.01
2022-09-24T16:41:03.270Z,23.22
2022-09-24T16:47:51.006Z,23.57
2022-09-24T16:54:36.814Z,23.55
2022-09-24T17:01:24.879Z,23.63
2022-09-24T17:08:13.121Z,23.73
2022-09-24T17:15:02.155Z,23.82
2022-09-24T17:21:50.273Z,23.56
2022-09-24T17:28:40.026Z,23.88
2022-09-24T17:35:25.389Z,23.91
2022-09-24T17:42:10.864Z,23.93
2022-09-24T17:49:02.724Z,23.92
2022-09-24T17:55:52.132Z,24.05
2022-09-24T18:02:37.556Z,23.91
2022-09-24T18:09:25.524Z,23.24
2022-09-24T18:16:14.095Z,23.20
2022-09-24T18:22:59.540Z,23.12
2022-09-24T18:29:47.541Z,22.97
2022-09-24T18:36:33.133Z,23.17
2022-09-24T18:43:18.501Z,23.04
2022-09-24T18:50:06.813Z,22.76
2022-09-24T18:56:52.419Z,22.59
2022-09-24T19:03:39.748Z,22.40
2022-09-24T19:10:27.730Z,22.24
2022-09-24T19:17:13.129Z,22.09
2022-09-24T19:24:01.040Z,21.91
2022-09-24T19:30:52.751Z,21.69
2022-09-24T19:37:38.506Z,21.46
2022-09-24T19:44:24.184Z,21.79
2022-09-24T19:51:16.387Z,21.72
2022-09-24T19:58:02.388Z,21.75
2022-09-24T20:04:47.988Z,21.81
2022-09-24T20:11:36.539Z,21.40
2022-09-24T20:18:21.951Z,21.92
2022-09-24T20:25:08.763Z,22.01
2022-09-24T20:31:58.056Z,21.98
2022-09-24T20:38:43.944Z,21.99
2022-09-24T20:45:29.435Z,22.01
2022-09-24T20:52:17.481Z,21.93
2022-09-24T20:59:03.669Z,21.87
2022-09-24T21:05:49.015Z,21.78
2022-09-24T21:12:37.043Z,21.81
2022-09-24T21:19:22.552Z,21.82
2022-09-24T21:26:16.800Z,21.77
2022-09-24T21:33:04.802Z,21.70
2022-09-24T21:39:50.173Z,21.61
2022-09-24T21:46:37.454Z,21.16
2022-09-24T21:53:25.553Z,21.46
2022-09-24T22:00:13.701Z,21.43
2022-09-24T22:06:59.103Z,21.41
2022-09-24T22:13:47.955Z,21.36
2022-09-24T22:20:33.922Z,21.34
2022-09-24T22:27:19.489Z,21.26
2022-09-24T22:34:20.184Z,21.32
2022-09-24T22:41:08.177Z,20.81
2022-09-24T22:47:55.285Z,21.31
2022-09-24T22:54:43.249Z,21.30
2022-09-24T23:01:31.767Z,21.33
2022-09-24T23:08:17.339Z,21.38
2022-09-24T23:15:05.579Z,20.82
2022-09-24T23:21:51.003Z,21.40
2022-09-24T23:28:37.955Z,21.38
2022-09-24T23:35:25.941Z,21.32
2022-09-24T23:42:11.833Z,20.76
2022-09-24T23:48:57.352Z,21.33
2022-09-24T23:55:49.501Z,21.30
